Thursday, June 21, 2018, 12:16 PM EDT
Back to Local

KSYR, Syracuse Hancock International Airport

Location: Syracuse, NY, United States Lat: 43.117
Local Time: 12:16 PM EDT (16:16 GMT) Lon: -76.1
Time Zone: US/Eastern Elev: 410 ft

Show me the last for .
Show Decoded

2018-06-21 11:54 METAR KSYR 211554Z 29006KT 10SM FEW030 BKN075 BKN250 21/15 A2988 RMK AO2 SLP115
                 T02110150 =
2018-06-21 10:54 METAR KSYR 211454Z 32004KT 10SM FEW050 FEW090 SCT250 21/16 A2987 RMK AO2 SLP111
                 T02060156 51007 =
2018-06-21 09:54 METAR KSYR 211354Z 25003KT 10SM FEW090 FEW250 19/14 A2987 RMK AO2 SLP109
                 T01890144 =
2018-06-21 08:54 METAR KSYR 211254Z 32003KT 10SM FEW090 FEW250 18/14 A2986 RMK AO2 SLP107
                 T01830139 =
2018-06-21 07:54 METAR KSYR 211154Z 31005KT 10SM FEW090 FEW250 16/14 A2985 RMK AO2 SLP104
                 T01610139 10161 20117 53014 =
2018-06-21 06:54 METAR KSYR 211054Z 00000KT 10SM FEW090 FEW180 FEW250 14/13 A2983 RMK AO2 SLP097
                 T01390133 $ =
2018-06-21 05:54 METAR KSYR 210954Z 00000KT 10SM FEW070 FEW180 SCT250 12/12 A2982 RMK AO2 SLP093
                 T01220122 $ =
2018-06-21 04:54 METAR KSYR 210854Z 00000KT 10SM FEW070 FEW180 SCT250 12/12 A2981 RMK AO2 SLP091
                 T01170117 55000 $ =
2018-06-21 03:54 METAR KSYR 210754Z 00000KT 10SM SCT190 SCT250 13/13 A2980 RMK AO2 SLP088
                 T01280128 $ =
2018-06-21 02:54 METAR KSYR 210654Z 00000KT 10SM FEW250 13/13 A2981 RMK AO2 SLP090 T01280128 $ =
2018-06-21 01:54 METAR KSYR 210554Z 00000KT 10SM FEW250 13/13 A2981 RMK AO2 SLP089 T01330133
                 10217 20128 58001 =
2018-06-21 00:54 METAR KSYR 210454Z 00000KT 10SM FEW180 FEW250 14/14 A2981 RMK AO2 SLP090
                 T01390139 402440106 =
2018-06-20 23:54 METAR KSYR 210354Z 00000KT 10SM SCT250 13/13 A2981 RMK AO2 SLP092 T01330128 =
2018-06-20 22:54 METAR KSYR 210254Z 00000KT 10SM FEW250 16/13 A2981 RMK AO2 SLP091 T01560133
                 53001 =
2018-06-20 21:54 METAR KSYR 210154Z 00000KT 10SM FEW250 17/13 A2981 RMK AO2 SLP090 T01670128 =
2018-06-20 20:54 METAR KSYR 210054Z 00000KT 10SM FEW250 18/13 A2980 RMK AO2 SLP089 T01830128 =
2018-06-20 19:54 METAR KSYR 202354Z 32005KT 10SM FEW250 22/12 A2981 RMK AO2 SLP089 T02170122
                 10244 20217 55004 =
2018-06-20 18:54 METAR KSYR 202254Z 00000KT 10SM SCT250 23/12 A2980 RMK AO2 SLP087 T02330117 =
2018-06-20 17:54 METAR KSYR 202154Z 33006KT 10SM BKN200 24/12 A2981 RMK AO2 SLP090 T02390117 =
2018-06-20 16:54 METAR KSYR 202054Z 00000KT 10SM SCT150 BKN200 23/12 A2982 RMK AO2 SLP094
                 T02280122 58013 =
2018-06-20 15:54 METAR KSYR 201954Z 26005KT 10SM BKN150 BKN200 23/11 A2984 RMK AO2 SLP100
                 T02330111 =
2018-06-20 14:54 METAR KSYR 201854Z 00000KT 10SM BKN150 OVC200 22/12 A2985 RMK AO2 SLP105
                 T02220122 =
2018-06-20 13:54 METAR KSYR 201754Z 00000KT 10SM BKN150 OVC200 22/12 A2986 RMK AO2 SLP108
                 T02170122 10217 20144 58012 =
2018-06-20 12:54 METAR KSYR 201654Z 07003KT 10SM BKN150 OVC200 21/13 A2987 RMK AO2 SLP113
                 T02060133 =

Support USWX by starting your Amazon purchase here.